Aviation Digital Data Service (ADDS)

Output produced by METARs form (0206 UTC 25 March 2019)
found at http://www.aviationweather.gov/metar/data/
 
METAR text: LFBD 250200Z AUTO 01006KT 7000 NSC 07/03 Q1027 NOSIG
Conditions at: LFBD (BORDEAUX/MERIGNA, FR) observed 0200 UTC 25 March 2019
Temperature: 7.0°C (45°F)
Dewpoint: 3.0°C (37°F) [RH = 76%]
Pressure (altimeter): 30.32 inches Hg (1027.0 mb)
Winds: from the N (10 degrees) at 7 MPH (6 knots; 3.1 m/s)
Visibility: 4 miles ( 7 km)
Ceiling: at least 12,000 feet AGL
Clouds: sky clear below 12,000 feet AGL
Weather: no significant weather observed at this time

Forecast for: LFBD (BORDEAUX/MERIGNA, FR)
Text: TAF LFBD 242300Z 2500/2606 02005KT 8000 NSC TX18/2514Z TN06/2502Z
Forecast period: 0000 UTC 25 March 2019 to 0600 UTC 26 March 2019
Forecast type: FROM: standard forecast or significant change
Winds: from the NNE (20 degrees) at 6 MPH (5 knots; 2.6 m/s)
Visibility: 5 miles (8 km)
Ceiling: unknown
Clouds: missing
Weather: no significant weather forecast for this period
Text: PROB40 2512/2606 02015KT
Forecast period: 1200 UTC 25 March 2019 to 0600 UTC 26 March 2019
Forecast type: PROBABLE: 40 percent likelihood of the following during this time
Winds: from the NNE (20 degrees) at 17 MPH (15 knots; 7.7 m/s)
Visibility: missing
Ceiling: unknown
Clouds: missing
Weather: no significant weather forecast for this period